Time;durP1;ratioP1;P1;durP2;ratioP2;P2;SDS_P1;SDS_P2;PMS_P1;PMS_P2;Temp;Humidity;BMP_temperature;BMP_pressure;BME280_temperature;BME280_humidity;BME280_pressure;Samples;Min_cycle;Max_cycle;Signal;HPM_P1;HPM_P2
2022/01/27 00:00:58;;;;;;;;;;;;;;;5.58;53.85;100014.75;4499778;31;35022;-86
2022/01/27 00:03:37;;;;;;;;;;;;;;;6.58;51.31;100014.03;4499622;31;34318;-85
2022/01/27 00:06:09;;;;;;;;;;;;;;;6.17;52.82;100020.84;4501403;31;33937;-86
2022/01/27 00:08:48;;;;;;;;;;;;;;;6.35;51.77;100013.03;4514486;31;33333;-86
2022/01/27 00:11:16;;;;;;;;;;;;;;;7.62;48.52;100010.47;4499387;31;34880;-85
2022/01/27 00:13:47;;;;;;;;;;;;;;;7.86;47.35;100013.09;4499326;31;34103;-86
2022/01/27 00:16:27;;;;;;;;;;;;;;;8.59;45.64;100016.56;4510204;31;34929;-85
2022/01/27 00:18:55;;;;;;;;;;;;;;;8.48;45.86;100016.19;4514887;31;34151;-85
2022/01/27 00:21:31;;;;;;;;;;;;;;;8.39;46.13;100013.31;4507809;31;34984;-86
2022/01/27 00:24:01;;;;;;;;;;;;;;;8.29;46.00;100018.09;4515180;31;34820;-86
2022/01/27 00:26:28;;;;;;;;;;;;;;;8.40;45.79;100007.28;4515309;31;34592;-86
2022/01/27 00:28:55;;;;;;;;;;;;;;;8.52;45.05;99997.38;4511428;31;33887;-84
2022/01/27 00:31:23;;;;;;;;;;;;;;;8.36;45.74;99997.66;4510183;31;34183;-86
2022/01/27 00:33:50;;;;;;;;;;;;;;;8.39;45.44;99992.63;4514764;31;34518;-86
2022/01/27 00:36:17;;;;;;;;;;;;;;;6.57;49.77;100004.53;4505845;31;34994;-86
2022/01/27 00:38:45;;;;;;;;;;;;;;;6.29;50.44;100010.22;4499478;31;33309;-86
2022/01/27 00:41:13;;;;;;;;;;;;;;;5.60;53.10;100001.94;4497775;31;33915;-86
2022/01/27 00:43:42;;;;;;;;;;;;;;;6.46;50.79;100003.22;4508186;31;34838;-86
2022/01/27 00:46:15;;;;;;;;;;;;;;;6.66;50.35;100007.50;4515092;31;34884;-86
2022/01/27 00:48:43;;;;;;;;;;;;;;;7.04;49.01;100005.59;4514869;31;33209;-85
2022/01/27 00:51:12;;;;;;;;;;;;;;;7.27;48.09;99994.53;4505521;31;34732;-86
2022/01/27 00:53:49;;;;;;;;;;;;;;;6.40;50.63;100019.25;4499011;31;34350;-86
2022/01/27 00:56:24;;;;;;;;;;;;;;;6.47;50.67;100007.53;4499193;31;34511;-86
2022/01/27 00:59:14;;;;;;;;;;;;;;;6.93;49.23;100012.03;4509999;31;34474;-86
2022/01/27 01:01:47;;;;;;;;;;;;;;;6.70;49.87;100013.66;4514701;31;34209;-86
2022/01/27 01:04:15;;;;;;;;;;;;;;;6.67;49.98;100001.53;4514759;31;34079;-85
2022/01/27 01:06:47;;;;;;;;;;;;;;;5.64;52.61;100013.25;4514646;31;35039;-86
2022/01/27 01:14:38;;;;;;;;;;;;;;;7.63;47.06;99996.75;4499000;31;34398;-86
2022/01/27 01:30:53;;;;;;;;;;;;;;;8.67;44.30;99961.69;4507743;31;33185;-85
2022/01/27 01:33:24;;;;;;;;;;;;;;;8.32;45.45;99977.69;4498890;31;35010;-85
2022/01/27 01:36:01;;;;;;;;;;;;;;;8.20;45.67;99971.28;4513644;31;35194;-86
2022/01/27 01:38:30;;;;;;;;;;;;;;;8.62;44.61;99967.56;4513220;31;34595;-84
2022/01/27 01:40:57;;;;;;;;;;;;;;;7.84;46.58;99968.28;4501346;31;33553;-87
2022/01/27 01:43:25;;;;;;;;;;;;;;;8.81;44.12;99963.87;4499758;31;35008;-86
2022/01/27 01:45:52;;;;;;;;;;;;;;;7.53;47.03;99968.81;4498764;31;33938;-85
2022/01/27 01:48:19;;;;;;;;;;;;;;;8.38;45.22;99962.47;4507689;31;34060;-85
2022/01/27 01:50:47;;;;;;;;;;;;;;;8.26;45.26;99957.72;4501715;31;34844;-86
2022/01/27 01:53:15;;;;;;;;;;;;;;;8.18;45.43;99954.87;4506265;31;33760;-86
2022/01/27 01:55:42;;;;;;;;;;;;;;;9.19;43.26;99958.19;4518404;31;33929;-86
2022/01/27 01:58:10;;;;;;;;;;;;;;;7.99;45.78;99970.50;4518345;31;34040;-86
2022/01/27 02:00:38;;;;;;;;;;;;;;;8.22;45.32;99968.75;4504315;31;34061;-86
2022/01/27 02:03:05;;;;;;;;;;;;;;;8.69;44.46;99970.41;4518926;31;33791;-86
2022/01/27 02:05:39;;;;;;;;;;;;;;;8.84;43.74;99974.31;4508086;31;32389;-85
2022/01/27 02:08:28;;;;;;;;;;;;;;;8.02;45.31;99973.22;4519453;31;33700;-85
2022/01/27 02:19:14;;;;;;;;;;;;;;;6.91;48.84;99967.28;4503558;31;34261;-85
2022/01/27 02:21:51;;;;;;;;;;;;;;;7.07;48.68;99946.44;4505711;31;33248;-84
2022/01/27 02:24:18;;;;;;;;;;;;;;;8.04;45.78;99948.34;4519259;31;34290;-86
2022/01/27 02:26:49;;;;;;;;;;;;;;;8.66;44.58;99935.81;4517606;31;34395;-86
2022/01/27 02:29:17;;;;;;;;;;;;;;;8.52;44.50;99935.34;4519022;31;35054;-85
2022/01/27 02:31:47;;;;;;;;;;;;;;;8.75;44.11;99928.34;4517462;31;33403;-85
2022/01/27 02:34:14;;;;;;;;;;;;;;;9.31;42.87;99930.94;4518077;31;33712;-85
2022/01/27 02:36:42;;;;;;;;;;;;;;;9.49;42.18;99927.19;4519094;31;33679;-85
2022/01/27 02:39:09;;;;;;;;;;;;;;;9.07;43.26;99925.91;4510962;31;34517;-86
2022/01/27 02:41:41;;;;;;;;;;;;;;;9.24;42.80;99919.53;4503181;31;34259;-86
2022/01/27 02:44:08;;;;;;;;;;;;;;;8.64;43.87;99928.03;4501590;31;34122;-86
2022/01/27 02:46:41;;;;;;;;;;;;;;;8.12;45.41;99917.59;4504603;31;34010;-86
2022/01/27 02:49:08;;;;;;;;;;;;;;;8.67;44.23;99904.84;4518824;31;33183;-86
2022/01/27 02:51:36;;;;;;;;;;;;;;;8.08;45.33;99916.63;4517168;31;33312;-86
2022/01/27 02:54:03;;;;;;;;;;;;;;;6.73;48.41;99905.56;4503412;31;33818;-86
2022/01/27 02:56:31;;;;;;;;;;;;;;;6.96;47.96;99909.03;4506782;31;33856;-87
2022/01/27 02:58:58;;;;;;;;;;;;;;;6.09;50.22;99909.81;4503384;31;34523;-86
2022/01/27 03:01:26;;;;;;;;;;;;;;;6.36;49.85;99910.91;4502974;31;34273;-86
2022/01/27 03:03:53;;;;;;;;;;;;;;;5.55;51.46;99913.41;4502671;31;34245;-86
2022/01/27 03:06:21;;;;;;;;;;;;;;;6.15;50.23;99916.94;4500431;31;35287;-85
2022/01/27 03:08:48;;;;;;;;;;;;;;;6.61;49.50;99912.81;4503970;31;34240;-85
2022/01/27 03:11:18;;;;;;;;;;;;;;;7.28;47.15;99916.31;4511903;31;34110;-86
2022/01/27 03:13:46;;;;;;;;;;;;;;;6.08;50.39;99920.06;4513892;31;35042;-84
2022/01/27 03:16:14;;;;;;;;;;;;;;;6.38;48.92;99927.31;4515621;31;35782;-86
2022/01/27 03:18:41;;;;;;;;;;;;;;;7.24;47.37;99929.03;4514267;31;34808;-87
2022/01/27 03:21:10;;;;;;;;;;;;;;;6.36;49.22;99928.94;4500923;31;34164;-87
2022/01/27 03:23:37;;;;;;;;;;;;;;;6.05;50.38;99935.38;4500589;31;35139;-87
2022/01/27 03:26:04;;;;;;;;;;;;;;;6.37;49.60;99941.03;4514695;31;34598;-87
2022/01/27 03:28:32;;;;;;;;;;;;;;;7.62;46.26;99929.59;4513066;31;35166;-86
2022/01/27 03:30:59;;;;;;;;;;;;;;;7.47;46.74;99920.47;4514066;31;34471;-86
2022/01/27 03:33:26;;;;;;;;;;;;;;;7.03;47.01;99911.91;4515136;31;34966;-87
2022/01/27 03:35:54;;;;;;;;;;;;;;;6.69;48.35;99920.00;4503438;31;34362;-86
2022/01/27 03:38:21;;;;;;;;;;;;;;;6.49;49.00;99916.63;4511245;31;33782;-84
2022/01/27 03:40:48;;;;;;;;;;;;;;;6.17;49.86;99916.97;4511293;31;33849;-85
2022/01/27 03:43:15;;;;;;;;;;;;;;;5.79;51.07;99914.47;4515448;31;34722;-85
2022/01/27 03:45:43;;;;;;;;;;;;;;;5.93;50.40;99911.69;4515268;31;33820;-85
2022/01/27 03:48:10;;;;;;;;;;;;;;;5.28;52.48;99916.50;4502848;31;33785;-85
2022/01/27 03:50:37;;;;;;;;;;;;;;;5.63;51.71;99901.78;4499708;31;33235;-86
2022/01/27 03:53:04;;;;;;;;;;;;;;;5.89;50.77;99899.47;4499393;31;34032;-85
2022/01/27 03:55:32;;;;;;;;;;;;;;;6.19;49.72;99887.94;4505617;31;34319;-85
2022/01/27 03:57:59;;;;;;;;;;;;;;;6.24;49.65;99894.13;4515434;31;34306;-85
2022/01/27 04:00:26;;;;;;;;;;;;;;;5.87;50.61;99896.81;4508526;31;34175;-86
2022/01/27 04:03:03;;;;;;;;;;;;;;;5.35;51.79;99894.53;4512178;31;35014;-85
2022/01/27 04:05:36;;;;;;;;;;;;;;;5.57;50.80;99881.81;4508326;31;34080;-86
2022/01/27 04:08:05;;;;;;;;;;;;;;;5.08;52.62;99889.03;4500178;31;34301;-85
2022/01/27 04:10:32;;;;;;;;;;;;;;;5.18;52.38;99901.47;4499613;31;34750;-85
2022/01/27 04:13:01;;;;;;;;;;;;;;;4.75;53.67;99896.03;4499429;31;33905;-85
2022/01/27 04:15:28;;;;;;;;;;;;;;;5.66;51.42;99901.03;4499235;31;35310;-85
2022/01/27 04:17:56;;;;;;;;;;;;;;;4.98;52.89;99889.41;4497895;31;34333;-85
2022/01/27 04:20:23;;;;;;;;;;;;;;;4.73;53.07;99892.50;4502070;31;33798;-85
2022/01/27 04:22:50;;;;;;;;;;;;;;;5.03;52.58;99893.94;4515266;31;34248;-78
2022/01/27 04:25:18;;;;;;;;;;;;;;;4.86;53.07;99894.84;4508794;31;34853;-86
2022/01/27 04:27:50;;;;;;;;;;;;;;;4.73;53.33;99892.50;4499363;31;33989;-86
2022/01/27 04:30:19;;;;;;;;;;;;;;;4.20;55.15;99907.03;4499279;31;33557;-85
2022/01/27 04:32:51;;;;;;;;;;;;;;;4.15;54.84;99911.06;4497862;31;34292;-86
2022/01/27 04:35:21;;;;;;;;;;;;;;;4.77;53.31;99903.00;4507600;31;32913;-85
2022/01/27 04:38:03;;;;;;;;;;;;;;;4.89;52.95;99892.44;4505482;31;34105;-85
2022/01/27 04:40:38;;;;;;;;;;;;;;;4.49;54.14;99895.66;4499636;31;32991;-86
2022/01/27 04:43:23;;;;;;;;;;;;;;;4.51;53.81;99898.28;4499300;31;34216;-86
2022/01/27 04:48:20;;;;;;;;;;;;;;;5.86;50.13;99897.62;4508522;31;34269;-85
2022/01/27 04:50:48;;;;;;;;;;;;;;;5.29;51.55;99900.25;4509871;31;33582;-85
2022/01/27 04:53:25;;;;;;;;;;;;;;;5.71;50.75;99895.28;4515074;31;34994;-86
2022/01/27 04:56:14;;;;;;;;;;;;;;;4.60;53.54;99904.75;4508352;31;34217;-85
2022/01/27 04:58:44;;;;;;;;;;;;;;;5.67;51.07;99903.66;4514851;31;33765;-84
2022/01/27 05:01:13;;;;;;;;;;;;;;;6.53;48.31;99892.75;4498567;31;33151;-86
2022/01/27 05:03:47;;;;;;;;;;;;;;;6.21;48.93;99899.19;4499166;31;34448;-85
2022/01/27 05:06:15;;;;;;;;;;;;;;;6.24;49.15;99891.56;4501859;31;35148;-85
2022/01/27 05:08:43;;;;;;;;;;;;;;;6.03;49.79;99899.28;4497558;31;35271;-86
2022/01/27 05:11:24;;;;;;;;;;;;;;;5.97;49.32;99886.13;4499697;31;34470;-84
2022/01/27 05:14:04;;;;;;;;;;;;;;;6.62;48.04;99876.78;4502118;31;34028;-85
2022/01/27 05:16:31;;;;;;;;;;;;;;;6.74;47.49;99882.44;4509246;31;34354;-83
2022/01/27 05:18:58;;;;;;;;;;;;;;;6.43;48.20;99880.31;4500758;31;34187;-86
2022/01/27 05:21:25;;;;;;;;;;;;;;;5.85;49.84;99893.31;4498085;31;34174;-86
2022/01/27 05:23:53;;;;;;;;;;;;;;;6.48;48.61;99883.97;4511945;31;34860;-87
2022/01/27 05:26:20;;;;;;;;;;;;;;;6.33;48.20;99885.94;4510057;31;35386;-85
2022/01/27 05:28:47;;;;;;;;;;;;;;;6.63;47.75;99888.88;4506887;31;33971;-87
2022/01/27 05:31:15;;;;;;;;;;;;;;;6.08;48.76;99902.03;4512891;31;33330;-86
2022/01/27 05:33:42;;;;;;;;;;;;;;;6.69;47.92;99883.94;4507465;31;34165;-87
2022/01/27 05:36:09;;;;;;;;;;;;;;;7.00;47.21;99885.13;4504484;31;34487;-83
2022/01/27 05:38:37;;;;;;;;;;;;;;;6.81;47.47;99883.53;4502445;31;33886;-86
2022/01/27 05:41:06;;;;;;;;;;;;;;;6.46;48.47;99884.72;4504755;31;33455;-85
2022/01/27 05:43:33;;;;;;;;;;;;;;;5.89;49.83;99884.03;4501731;31;34300;-85
2022/01/27 05:46:00;;;;;;;;;;;;;;;5.92;50.16;99884.16;4502664;31;34369;-84
2022/01/27 05:48:28;;;;;;;;;;;;;;;7.21;47.15;99870.47;4500079;31;34380;-83
2022/01/27 05:50:56;;;;;;;;;;;;;;;6.86;47.92;99863.09;4502447;31;33562;-85
2022/01/27 05:53:24;;;;;;;;;;;;;;;6.83;47.75;99872.47;4497055;31;33935;-86
2022/01/27 05:55:51;;;;;;;;;;;;;;;6.26;49.36;99866.78;4499303;31;34143;-82
2022/01/27 05:58:19;;;;;;;;;;;;;;;5.90;50.38;99867.75;4511945;31;35015;-85
2022/01/27 06:00:46;;;;;;;;;;;;;;;6.11;49.93;99868.72;4501297;31;33841;-86
2022/01/27 06:03:14;;;;;;;;;;;;;;;7.18;47.46;99869.50;4498482;31;34431;-86
2022/01/27 06:05:41;;;;;;;;;;;;;;;6.35;48.90;99871.41;4498159;31;34299;-87
2022/01/27 06:08:08;;;;;;;;;;;;;;;5.83;50.48;99869.19;4498395;31;35091;-87
2022/01/27 06:10:36;;;;;;;;;;;;;;;7.29;47.18;99866.50;4498068;31;33326;-86
2022/01/27 06:13:03;;;;;;;;;;;;;;;6.09;49.76;99871.19;4498268;31;34325;-86
2022/01/27 06:15:30;;;;;;;;;;;;;;;7.57;46.40;99862.31;4499947;31;34454;-87
2022/01/27 06:17:58;;;;;;;;;;;;;;;7.41;46.39;99862.59;4498098;31;35042;-87
2022/01/27 06:20:28;;;;;;;;;;;;;;;7.46;46.58;99856.81;4497835;31;33110;-88
2022/01/27 06:22:59;;;;;;;;;;;;;;;7.75;45.95;99865.56;4498087;31;34092;-87
2022/01/27 06:25:32;;;;;;;;;;;;;;;7.63;45.90;99865.13;4497357;31;35002;-85
2022/01/27 06:27:59;;;;;;;;;;;;;;;8.19;44.82;99868.78;4498474;31;33768;-85
2022/01/27 06:30:26;;;;;;;;;;;;;;;6.91;47.44;99874.47;4483949;31;32508;-87
2022/01/27 06:32:54;;;;;;;;;;;;;;;7.54;46.03;99880.28;4498296;31;34239;-85
2022/01/27 06:35:21;;;;;;;;;;;;;;;7.99;45.34;99875.88;4498978;31;34412;-85
2022/01/27 06:37:49;;;;;;;;;;;;;;;8.50;44.01;99875.00;4497932;31;33919;-84
2022/01/27 06:40:17;;;;;;;;;;;;;;;8.55;43.97;99883.78;4497735;31;33268;-87
2022/01/27 06:42:44;;;;;;;;;;;;;;;7.99;44.85;99898.22;4500770;31;34218;-84
2022/01/27 06:45:11;;;;;;;;;;;;;;;8.44;44.11;99901.50;4514479;31;33903;-85
2022/01/27 06:47:39;;;;;;;;;;;;;;;7.49;46.38;99902.44;4514877;31;35155;-85
2022/01/27 06:50:06;;;;;;;;;;;;;;;7.53;46.29;99906.91;4515510;31;33771;-85
2022/01/27 06:52:33;;;;;;;;;;;;;;;8.29;44.58;99917.34;4515147;31;34604;-84
2022/01/27 06:55:03;;;;;;;;;;;;;;;8.22;44.89;99914.50;4515544;31;34462;-85
2022/01/27 06:57:35;;;;;;;;;;;;;;;7.91;45.27;99922.88;4515315;31;35031;-87
2022/01/27 07:00:03;;;;;;;;;;;;;;;6.98;47.73;99934.06;4505297;31;34158;-86
2022/01/27 07:02:30;;;;;;;;;;;;;;;7.23;47.37;99933.31;4488002;31;34809;-85
2022/01/27 07:04:58;;;;;;;;;;;;;;;7.69;46.65;99916.97;4512488;31;34365;-85
2022/01/27 07:07:25;;;;;;;;;;;;;;;8.34;44.98;99914.94;4514985;31;34815;-85
2022/01/27 07:09:52;;;;;;;;;;;;;;;8.05;45.29;99909.63;4510249;31;33312;-86
2022/01/27 07:12:20;;;;;;;;;;;;;;;9.11;42.91;99897.59;4511113;31;33919;-85
2022/01/27 07:14:48;;;;;;;;;;;;;;;8.53;43.73;99906.12;4511116;31;34668;-85
2022/01/27 07:17:18;;;;;;;;;;;;;;;7.99;44.90;99912.03;4512646;31;33731;-86
2022/01/27 07:19:46;;;;;;;;;;;;;;;8.62;44.06;99903.81;4498770;31;33693;-85
2022/01/27 07:22:13;;;;;;;;;;;;;;;8.35;44.69;99913.22;4499004;31;34001;-85
2022/01/27 07:24:40;;;;;;;;;;;;;;;7.24;46.99;99911.88;4499772;31;34535;-87
2022/01/27 07:27:08;;;;;;;;;;;;;;;6.39;48.75;99918.78;4485223;31;33820;-85
2022/01/27 07:29:35;;;;;;;;;;;;;;;6.55;48.95;99908.25;4499791;31;32941;-85
2022/01/27 07:32:02;;;;;;;;;;;;;;;6.71;48.57;99902.94;4500400;31;33871;-85
2022/01/27 07:34:30;;;;;;;;;;;;;;;7.74;45.94;99899.94;4500059;31;34533;-87
2022/01/27 07:37:00;;;;;;;;;;;;;;;6.95;47.72;99892.69;4507701;31;35239;-86
2022/01/27 07:39:27;;;;;;;;;;;;;;;7.71;45.69;99888.63;4514662;31;34395;-85
2022/01/27 07:41:57;;;;;;;;;;;;;;;7.10;47.34;99895.00;4514707;31;34846;-85
2022/01/27 07:44:24;;;;;;;;;;;;;;;5.67;51.15;99898.53;4514719;31;35373;-85
2022/01/27 07:46:51;;;;;;;;;;;;;;;5.78;50.51;99886.13;4513347;31;33885;-83
2022/01/27 07:49:18;;;;;;;;;;;;;;;6.76;48.25;99877.34;4510669;31;33030;-84
2022/01/27 07:51:46;;;;;;;;;;;;;;;5.64;50.91;99888.09;4514377;31;34174;-84
2022/01/27 07:54:13;;;;;;;;;;;;;;;6.85;48.35;99885.41;4514709;31;34703;-83
2022/01/27 07:56:40;;;;;;;;;;;;;;;7.19;47.18;99881.56;4514815;31;34210;-83
2022/01/27 07:59:08;;;;;;;;;;;;;;;6.25;49.30;99874.41;4513431;31;34278;-83
2022/01/27 08:01:35;;;;;;;;;;;;;;;7.16;47.43;99877.19;4514734;31;34315;-83
2022/01/27 08:04:03;;;;;;;;;;;;;;;8.12;44.95;99877.16;4513668;31;35319;-83
2022/01/27 08:06:30;;;;;;;;;;;;;;;8.23;44.57;99873.22;4513159;31;33944;-82
2022/01/27 08:08:57;;;;;;;;;;;;;;;7.84;45.31;99867.59;4514458;31;33462;-83
2022/01/27 08:11:24;;;;;;;;;;;;;;;5.68;50.69;99884.84;4514529;31;34102;-83
2022/01/27 08:13:52;;;;;;;;;;;;;;;7.99;45.66;99873.28;4512213;31;35172;-83
2022/01/27 08:16:19;;;;;;;;;;;;;;;8.18;44.29;99871.31;4509620;31;34117;-84
2022/01/27 08:18:47;;;;;;;;;;;;;;;7.67;45.96;99884.19;4498991;31;34027;-83
2022/01/27 08:21:14;;;;;;;;;;;;;;;6.78;47.67;99873.09;4498167;31;34235;-83
2022/01/27 08:23:43;;;;;;;;;;;;;;;7.12;47.36;99872.69;4497521;31;35203;-83
2022/01/27 08:26:13;;;;;;;;;;;;;;;8.19;44.48;99871.37;4496444;31;34723;-83
2022/01/27 08:31:14;;;;;;;;;;;;;;;8.60;44.01;99858.06;4499352;31;34185;-83
2022/01/27 08:33:42;;;;;;;;;;;;;;;8.05;44.46;99870.91;4499246;31;35287;-82
2022/01/27 08:36:09;;;;;;;;;;;;;;;7.09;47.15;99869.16;4499239;31;33659;-83
2022/01/27 08:38:43;;;;;;;;;;;;;;;6.40;48.95;99864.72;4499430;31;33498;-83
2022/01/27 08:41:10;;;;;;;;;;;;;;;7.09;46.89;99862.28;4499235;31;33579;-83
2022/01/27 08:43:37;;;;;;;;;;;;;;;6.84;47.78;99868.19;4499558;31;34426;-83
2022/01/27 08:46:05;;;;;;;;;;;;;;;7.56;45.51;99858.00;4499256;31;33862;-83
2022/01/27 08:48:34;;;;;;;;;;;;;;;7.33;46.69;99859.75;4499242;31;34023;-83
2022/01/27 08:51:02;;;;;;;;;;;;;;;7.42;47.00;99854.03;4498942;31;34100;-83
2022/01/27 08:53:48;;;;;;;;;;;;;;;7.31;46.27;99862.28;4499149;31;34107;-83
2022/01/27 08:56:17;;;;;;;;;;;;;;;7.74;45.59;99862.94;4497994;31;34118;-84
2022/01/27 08:59:04;;;;;;;;;;;;;;;7.28;46.76;99866.44;4499483;31;33269;-83
2022/01/27 09:01:31;;;;;;;;;;;;;;;7.46;46.63;99876.53;4499243;31;34257;-83
2022/01/27 09:03:59;;;;;;;;;;;;;;;7.92;45.55;99867.88;4496956;31;33095;-83
2022/01/27 09:06:28;;;;;;;;;;;;;;;7.97;45.12;99856.84;4498953;31;33891;-83
2022/01/27 09:08:56;;;;;;;;;;;;;;;8.32;44.07;99853.69;4498766;31;33592;-83
2022/01/27 09:11:23;;;;;;;;;;;;;;;7.19;46.29;99866.97;4499455;31;33794;-83
2022/01/27 09:14:12;;;;;;;;;;;;;;;8.51;44.14;99856.06;4499264;31;35242;-84
2022/01/27 09:16:40;;;;;;;;;;;;;;;5.78;49.66;99866.41;4498858;31;34209;-83
2022/01/27 09:19:14;;;;;;;;;;;;;;;6.69;48.42;99872.75;4497766;31;33647;-83
2022/01/27 09:21:46;;;;;;;;;;;;;;;7.13;47.28;99877.06;4499091;31;34797;-83
2022/01/27 09:24:16;;;;;;;;;;;;;;;7.31;45.88;99880.34;4498883;31;35369;-83
2022/01/27 09:29:15;;;;;;;;;;;;;;;7.05;46.28;99873.31;4497727;31;33576;-83
2022/01/27 09:31:42;;;;;;;;;;;;;;;6.79;47.32;99883.50;4498642;31;34168;-83
2022/01/27 09:34:30;;;;;;;;;;;;;;;7.61;45.86;99884.81;4498800;31;34454;-83
2022/01/27 09:36:57;;;;;;;;;;;;;;;7.73;45.69;99882.72;4498989;31;34036;-83
2022/01/27 09:39:25;;;;;;;;;;;;;;;8.18;44.61;99876.47;4499060;31;33078;-83
2022/01/27 09:41:53;;;;;;;;;;;;;;;7.10;46.62;99884.66;4499318;31;33734;-83
2022/01/27 09:44:24;;;;;;;;;;;;;;;6.59;48.12;99868.94;4499120;31;34241;-83
2022/01/27 09:46:53;;;;;;;;;;;;;;;7.17;46.25;99878.94;4499109;31;34356;-82
2022/01/27 09:49:30;;;;;;;;;;;;;;;7.73;45.33;99866.34;4498446;31;33974;-83
2022/01/27 09:51:57;;;;;;;;;;;;;;;8.09;44.79;99860.69;4498615;31;34080;-83
2022/01/27 09:54:24;;;;;;;;;;;;;;;7.04;47.05;99861.22;4498665;31;34202;-83
2022/01/27 09:56:53;;;;;;;;;;;;;;;8.09;44.79;99865.84;4497190;31;34593;-83
2022/01/27 09:59:21;;;;;;;;;;;;;;;7.22;46.75;99866.19;4498792;31;33948;-83
2022/01/27 10:02:05;;;;;;;;;;;;;;;8.07;44.69;99864.91;4498649;31;34788;-82
2022/01/27 10:04:51;;;;;;;;;;;;;;;7.94;44.00;99869.66;4498425;31;33843;-83
2022/01/27 10:07:20;;;;;;;;;;;;;;;8.10;44.49;99867.59;4498130;31;33984;-83
2022/01/27 10:09:55;;;;;;;;;;;;;;;7.10;46.77;99861.47;4497163;31;33407;-83
2022/01/27 10:12:30;;;;;;;;;;;;;;;7.65;45.93;99860.91;4498331;31;34320;-83
2022/01/27 10:14:58;;;;;;;;;;;;;;;7.77;44.85;99843.28;4498845;31;33944;-83
2022/01/27 10:17:26;;;;;;;;;;;;;;;7.65;45.46;99832.53;4500355;31;34885;-83
2022/01/27 10:19:53;;;;;;;;;;;;;;;7.50;45.69;99831.97;4500062;31;34219;-83
2022/01/27 10:22:21;;;;;;;;;;;;;;;7.69;44.91;99823.16;4500502;31;34204;-83
2022/01/27 10:24:58;;;;;;;;;;;;;;;7.95;45.10;99811.16;4500270;31;34508;-83
2022/01/27 10:27:34;;;;;;;;;;;;;;;8.04;44.47;99796.84;4498990;31;34056;-83
2022/01/27 10:30:05;;;;;;;;;;;;;;;7.89;44.97;99795.47;4500217;31;33102;-83
2022/01/27 10:32:37;;;;;;;;;;;;;;;7.36;46.03;99804.81;4499999;31;34182;-83
2022/01/27 10:35:04;;;;;;;;;;;;;;;8.78;43.73;99794.87;4500464;31;33949;-83
2022/01/27 10:37:51;;;;;;;;;;;;;;;8.19;43.93;99788.72;4499233;31;34334;-83
2022/01/27 10:40:37;;;;;;;;;;;;;;;8.79;42.97;99790.63;4500245;31;33095;-84
2022/01/27 10:43:07;;;;;;;;;;;;;;;8.17;43.41;99780.03;4500111;31;34169;-83
2022/01/27 10:45:36;;;;;;;;;;;;;;;8.57;42.74;99772.72;4500431;31;33877;-83
2022/01/27 10:48:18;;;;;;;;;;;;;;;7.10;45.89;99788.41;4500201;31;34121;-83
2022/01/27 10:50:59;;;;;;;;;;;;;;;7.55;44.97;99774.56;4500008;31;33594;-84
2022/01/27 10:53:50;;;;;;;;;;;;;;;7.69;44.66;99764.72;4499930;31;34272;-83
2022/01/27 10:56:25;;;;;;;;;;;;;;;6.76;46.90;99775.13;4500061;31;34278;-83
2022/01/27 10:58:53;;;;;;;;;;;;;;;7.73;44.83;99761.41;4500230;31;34650;-83
2022/01/27 11:01:21;;;;;;;;;;;;;;;7.76;44.89;99758.91;4498799;31;32951;-83
2022/01/27 11:03:51;;;;;;;;;;;;;;;7.36;45.48;99761.84;4498703;31;34191;-83
2022/01/27 11:06:19;;;;;;;;;;;;;;;7.90;44.72;99758.50;4499912;31;33799;-83
2022/01/27 11:08:47;;;;;;;;;;;;;;;7.56;45.33;99772.84;4499962;31;35066;-83
2022/01/27 11:11:14;;;;;;;;;;;;;;;8.64;43.22;99761.72;4499910;31;33505;-82
2022/01/27 11:13:44;;;;;;;;;;;;;;;8.20;44.25;99759.47;4499771;31;34097;-83
2022/01/27 11:16:16;;;;;;;;;;;;;;;7.87;44.71;99755.81;4499690;31;34368;-83
2022/01/27 11:18:46;;;;;;;;;;;;;;;8.05;44.27;99748.66;4498654;31;34370;-83
2022/01/27 11:21:29;;;;;;;;;;;;;;;8.87;43.01;99746.88;4500135;31;34317;-83
2022/01/27 11:26:29;;;;;;;;;;;;;;;8.31;44.27;99743.44;4498140;31;34486;-83
2022/01/27 11:28:57;;;;;;;;;;;;;;;8.25;44.43;99734.66;4498649;31;34311;-83
2022/01/27 11:31:37;;;;;;;;;;;;;;;8.32;44.10;99734.84;4498296;31;33384;-83
2022/01/27 11:34:05;;;;;;;;;;;;;;;7.94;44.54;99731.94;4498983;31;34472;-83
2022/01/27 11:36:33;;;;;;;;;;;;;;;8.28;43.98;99721.84;4498596;31;35292;-84
2022/01/27 11:39:01;;;;;;;;;;;;;;;7.88;44.76;99718.81;4499824;31;34151;-82
2022/01/27 11:41:35;;;;;;;;;;;;;;;8.57;43.34;99706.38;4499876;31;33250;-83
2022/01/27 11:44:22;;;;;;;;;;;;;;;8.68;43.25;99710.16;4499819;31;33875;-83
2022/01/27 11:47:19;;;;;;;;;;;;;;;7.10;46.98;99719.66;4499828;31;35052;-83
2022/01/27 11:49:58;;;;;;;;;;;;;;;7.99;44.89;99704.56;4489728;31;34724;-83
2022/01/27 11:52:28;;;;;;;;;;;;;;;7.63;45.36;99705.13;4499819;31;32954;-83
2022/01/27 11:54:56;;;;;;;;;;;;;;;8.42;43.79;99701.63;4499750;31;35018;-83
2022/01/27 11:57:37;;;;;;;;;;;;;;;8.50;43.42;99694.13;4499959;31;34362;-83
2022/01/27 12:00:09;;;;;;;;;;;;;;;9.72;40.96;99696.53;4499364;31;34363;-83
2022/01/27 12:02:57;;;;;;;;;;;;;;;9.04;42.05;99691.31;4498475;31;33187;-83
2022/01/27 12:05:25;;;;;;;;;;;;;;;9.41;41.82;99689.72;4499804;31;33721;-83
2022/01/27 12:08:11;;;;;;;;;;;;;;;8.68;43.30;99699.81;4499657;31;34425;-83
2022/01/27 12:10:39;;;;;;;;;;;;;;;8.03;44.28;99693.50;4499712;31;33617;-83
2022/01/27 12:13:40;;;;;;;;;;;;;;;8.11;44.21;99686.03;4499668;31;33780;-83
2022/01/27 12:19:08;;;;;;;;;;;;;;;8.30;44.18;99690.91;4499433;31;34615;-83
2022/01/27 12:21:35;;;;;;;;;;;;;;;8.87;42.86;99687.41;4499518;31;34103;-83
2022/01/27 12:24:12;;;;;;;;;;;;;;;8.52;43.17;99682.09;4499308;31;33848;-83
2022/01/27 12:26:46;;;;;;;;;;;;;;;9.55;40.84;99683.19;4499418;31;34317;-83
2022/01/27 12:29:31;;;;;;;;;;;;;;;9.38;41.50;99680.16;4499256;31;34393;-83
2022/01/27 12:32:03;;;;;;;;;;;;;;;9.20;41.96;99680.53;4499563;31;33649;-83
2022/01/27 12:34:31;;;;;;;;;;;;;;;9.68;40.87;99677.47;4499656;31;33008;-83
2022/01/27 12:37:09;;;;;;;;;;;;;;;10.10;40.24;99668.94;4499411;31;34270;-83
2022/01/27 12:39:37;;;;;;;;;;;;;;;9.97;40.48;99669.53;4498180;31;33851;-83
2022/01/27 12:42:16;;;;;;;;;;;;;;;9.73;40.92;99668.09;4499187;31;34223;-83
2022/01/27 12:44:59;;;;;;;;;;;;;;;9.84;40.75;99663.16;4497897;31;33284;-83
2022/01/27 12:47:27;;;;;;;;;;;;;;;9.69;41.35;99655.91;4499080;31;34227;-83
2022/01/27 12:50:06;;;;;;;;;;;;;;;9.85;40.76;99636.44;4499296;31;34327;-84
2022/01/27 12:52:39;;;;;;;;;;;;;;;10.23;40.00;99639.03;4498971;31;34313;-83
2022/01/27 12:55:07;;;;;;;;;;;;;;;9.86;41.17;99637.31;4499706;31;33575;-83
2022/01/27 12:57:52;;;;;;;;;;;;;;;10.45;39.43;99633.50;4499061;31;34215;-83
2022/01/27 13:00:20;;;;;;;;;;;;;;;10.86;39.14;99617.84;4499466;31;33977;-83
2022/01/27 13:02:47;;;;;;;;;;;;;;;9.30;42.09;99617.00;4499480;31;34132;-83
2022/01/27 13:05:16;;;;;;;;;;;;;;;8.71;43.78;99619.78;4499206;31;33116;-83
2022/01/27 13:07:47;;;;;;;;;;;;;;;8.95;43.20;99600.59;4499159;31;34028;-84
2022/01/27 13:10:18;;;;;;;;;;;;;;;9.23;42.78;99595.25;4499172;31;34119;-83
2022/01/27 13:12:52;;;;;;;;;;;;;;;10.22;41.02;99591.47;4497655;31;34724;-83
2022/01/27 13:15:21;;;;;;;;;;;;;;;10.62;40.60;99579.38;4499067;31;34201;-83
2022/01/27 13:17:54;;;;;;;;;;;;;;;10.77;40.00;99568.41;4497946;31;33446;-83
2022/01/27 13:22:56;;;;;;;;;;;;;;;10.70;40.42;99564.81;4498824;31;34327;-83
2022/01/27 13:25:35;;;;;;;;;;;;;;;10.68;40.34;99563.94;4499075;31;33001;-83
2022/01/27 13:28:06;;;;;;;;;;;;;;;10.95;39.87;99560.09;4499050;31;35114;-83
2022/01/27 13:30:35;;;;;;;;;;;;;;;11.38;38.86;99560.78;4498680;31;35294;-83
2022/01/27 13:33:06;;;;;;;;;;;;;;;11.38;38.87;99560.78;4498857;31;34409;-83
2022/01/27 13:35:34;;;;;;;;;;;;;;;11.21;39.18;99557.91;4499119;31;34500;-83
2022/01/27 13:38:18;;;;;;;;;;;;;;;11.44;38.60;99550.50;4497570;31;34418;-83
2022/01/27 13:43:40;;;;;;;;;;;;;;;11.24;39.37;99559.69;4498874;31;34089;-83
2022/01/27 13:46:08;;;;;;;;;;;;;;;11.69;38.13;99560.41;4497709;31;34131;-83
2022/01/27 13:48:42;;;;;;;;;;;;;;;11.87;37.87;99552.03;4498699;31;34243;-83
2022/01/27 13:51:17;;;;;;;;;;;;;;;12.35;36.74;99550.00;4496890;31;34090;-83
2022/01/27 13:54:02;;;;;;;;;;;;;;;11.37;38.25;99544.34;4498464;31;33682;-83
2022/01/27 13:56:41;;;;;;;;;;;;;;;11.88;37.53;99532.12;4498327;31;34370;-84
2022/01/27 13:59:15;;;;;;;;;;;;;;;11.60;37.81;99530.84;4498677;31;33706;-83